Time;durP1;ratioP1;P1;durP2;ratioP2;P2;SDS_P1;SDS_P2;PMS_P1;PMS_P2;Temp;Humidity;BMP_temperature;BMP_pressure;BME280_temperature;BME280_humidity;BME280_pressure;Samples;Min_cycle;Max_cycle;Signal;HPM_P1;HPM_P2
2023/03/03 00:01:19;;;;;;;26.08;10.38;;;3.60;99.90;;;;;;5089698;28;20131;-71
2023/03/03 00:03:45;;;;;;;24.33;10.32;;;3.60;99.90;;;;;;5086102;28;20020;-72
2023/03/03 00:06:13;;;;;;;20.52;8.93;;;3.70;99.90;;;;;;5084232;28;20050;-73
2023/03/03 00:08:39;;;;;;;25.63;10.45;;;3.70;99.90;;;;;;5086775;28;24181;-70
2023/03/03 00:11:06;;;;;;;26.73;10.90;;;3.70;99.90;;;;;;5086145;28;20036;-69
2023/03/03 00:13:52;;;;;;;22.33;10.25;;;3.70;99.90;;;;;;5098118;28;20478;-70
2023/03/03 00:16:52;;;;;;;22.42;8.95;;;3.70;99.90;;;;;;5099722;28;20036;-70
2023/03/03 00:19:19;;;;;;;22.10;9.18;;;3.70;99.90;;;;;;5075726;28;20071;-70
2023/03/03 00:21:46;;;;;;;20.83;9.00;;;3.70;99.90;;;;;;5094173;28;20078;-69
2023/03/03 00:24:44;;;;;;;20.00;8.57;;;3.70;99.90;;;;;;5095309;28;20571;-69
2023/03/03 00:27:30;;;;;;;18.92;8.50;;;3.70;99.90;;;;;;5053103;28;20055;-69
2023/03/03 00:29:58;;;;;;;17.95;7.63;;;3.70;99.90;;;;;;5101230;28;20055;-69
2023/03/03 00:32:28;;;;;;;17.52;7.65;;;3.70;99.90;;;;;;5089065;28;20543;-69
2023/03/03 00:34:58;;;;;;;16.50;6.38;;;3.70;99.90;;;;;;5088772;28;20056;-70
2023/03/03 00:37:32;;;;;;;18.63;7.43;;;3.70;99.90;;;;;;5081160;28;20423;-69
2023/03/03 00:40:13;;;;;;;16.80;6.72;;;3.70;99.90;;;;;;5082213;28;20025;-69
2023/03/03 00:42:39;;;;;;;17.17;6.20;;;3.70;99.90;;;;;;5083211;28;20032;-69
2023/03/03 00:45:44;;;;;;;16.20;5.93;;;3.70;99.90;;;;;;5089906;28;20051;-69
2023/03/03 00:48:22;;;;;;;14.40;5.75;;;3.70;99.90;;;;;;5103150;28;20051;-69
2023/03/03 00:50:50;;;;;;;15.43;5.80;;;3.70;99.90;;;;;;5109678;28;20131;-73
2023/03/03 00:53:18;;;;;;;14.82;5.43;;;3.70;99.90;;;;;;5088497;28;20052;-70
2023/03/03 00:55:45;;;;;;;18.08;6.47;;;3.70;99.90;;;;;;5086243;28;20804;-71
2023/03/03 00:58:11;;;;;;;19.90;6.07;;;3.70;99.90;;;;;;5094514;28;20062;-70
2023/03/03 01:00:37;;;;;;;14.90;5.90;;;3.70;99.90;;;;;;5081056;28;20024;-71
2023/03/03 01:03:17;;;;;;;12.75;4.55;;;3.70;99.90;;;;;;5090419;28;20031;-72
2023/03/03 01:05:43;;;;;;;13.80;5.28;;;3.70;99.90;;;;;;5097827;28;20127;-71
2023/03/03 01:08:09;;;;;;;15.93;5.50;;;3.70;99.90;;;;;;5093402;28;20104;-70
2023/03/03 01:10:56;;;;;;;12.73;4.95;;;3.70;99.90;;;;;;5092692;28;20060;-71
2023/03/03 01:13:29;;;;;;;11.95;4.78;;;3.60;99.90;;;;;;5092423;28;20027;-69
2023/03/03 01:15:54;;;;;;;14.57;4.75;;;3.60;99.90;;;;;;5091586;28;20032;-68
2023/03/03 01:18:20;;;;;;;11.02;4.88;;;3.60;99.90;;;;;;5093462;28;20051;-68
2023/03/03 01:20:47;;;;;;;11.20;4.10;;;3.60;99.90;;;;;;5089503;28;20416;-69
2023/03/03 01:23:13;;;;;;;14.90;4.50;;;3.60;99.90;;;;;;5089418;28;20547;-70
2023/03/03 01:25:39;;;;;;;8.63;3.55;;;3.60;99.90;;;;;;5090223;28;20139;-71
2023/03/03 01:28:04;;;;;;;13.70;4.65;;;3.60;99.90;;;;;;5093304;28;20671;-69
2023/03/03 01:30:30;;;;;;;12.95;4.63;;;3.60;99.90;;;;;;5091257;28;20072;-69
2023/03/03 01:32:56;;;;;;;10.10;3.80;;;3.60;99.90;;;;;;5071940;28;20020;-72
2023/03/03 01:35:22;;;;;;;14.23;4.53;;;3.60;99.90;;;;;;5089848;28;20023;-69
2023/03/03 01:37:48;;;;;;;12.57;4.13;;;3.60;99.90;;;;;;5091844;28;20445;-72
2023/03/03 01:40:27;;;;;;;9.10;4.03;;;3.60;99.90;;;;;;5094177;28;20027;-69
2023/03/03 01:42:53;;;;;;;10.73;3.72;;;3.60;99.90;;;;;;5090639;28;20051;-71
2023/03/03 01:45:20;;;;;;;12.20;3.55;;;3.60;99.90;;;;;;5090362;28;20116;-69
2023/03/03 01:47:50;;;;;;;10.95;3.60;;;3.60;99.90;;;;;;5091033;28;20035;-70
2023/03/03 01:50:31;;;;;;;7.07;2.95;;;3.60;99.90;;;;;;5092895;28;20132;-71
2023/03/03 01:52:59;;;;;;;7.60;3.00;;;3.60;99.90;;;;;;5089739;28;20084;-73
2023/03/03 01:55:30;;;;;;;8.48;2.92;;;3.60;99.90;;;;;;5088507;28;20055;-69
2023/03/03 01:58:18;;;;;;;10.15;4.00;;;3.60;99.90;;;;;;5092697;28;20031;-69
2023/03/03 02:00:48;;;;;;;10.65;2.95;;;3.60;99.90;;;;;;5089726;28;20107;-69
2023/03/03 02:03:13;;;;;;;14.95;3.85;;;3.60;99.90;;;;;;5087927;28;20036;-69
2023/03/03 02:05:40;;;;;;;8.88;2.97;;;3.60;99.90;;;;;;5091282;28;20051;-71
2023/03/03 02:08:08;;;;;;;6.43;3.00;;;3.60;99.90;;;;;;5090140;28;20110;-72
2023/03/03 02:10:34;;;;;;;9.77;2.53;;;3.70;99.90;;;;;;5086507;28;20028;-69
2023/03/03 02:13:00;;;;;;;9.55;2.78;;;3.70;99.90;;;;;;5071373;28;20032;-69
2023/03/03 02:15:34;;;;;;;8.63;3.60;;;3.70;99.90;;;;;;5087839;28;20371;-69
2023/03/03 02:18:07;;;;;;;7.60;3.22;;;3.70;99.90;;;;;;5086811;28;20036;-69
2023/03/03 02:20:51;;;;;;;8.60;3.03;;;3.70;99.90;;;;;;5093196;28;20514;-69
2023/03/03 02:23:28;;;;;;;13.05;3.60;;;3.70;99.90;;;;;;5092742;28;20047;-68
2023/03/03 02:25:57;;;;;;;11.93;4.60;;;3.70;99.90;;;;;;5092199;28;20028;-69
2023/03/03 02:28:27;;;;;;;10.57;3.25;;;3.70;99.90;;;;;;5083264;28;20403;-69
2023/03/03 02:30:57;;;;;;;12.13;4.25;;;3.70;99.90;;;;;;5087577;28;20055;-69
2023/03/03 02:33:23;;;;;;;12.90;5.63;;;3.70;99.90;;;;;;5087176;28;20058;-69
2023/03/03 02:35:50;;;;;;;9.52;3.25;;;3.70;99.90;;;;;;5082575;28;20033;-69
2023/03/03 02:38:26;;;;;;;9.25;3.70;;;3.70;99.90;;;;;;5093829;28;20052;-69
2023/03/03 02:41:19;;;;;;;14.10;4.30;;;3.70;99.90;;;;;;5102153;28;20032;-69
2023/03/03 02:43:57;;;;;;;9.95;3.75;;;3.70;99.90;;;;;;5096161;28;20059;-68
2023/03/03 02:46:23;;;;;;;7.00;2.33;;;3.70;99.90;;;;;;5098039;28;20044;-69
2023/03/03 02:48:48;;;;;;;6.60;2.63;;;3.70;99.90;;;;;;5100027;28;20046;-69
2023/03/03 02:51:14;;;;;;;5.82;2.83;;;3.70;99.90;;;;;;5091022;28;20486;-70
2023/03/03 02:53:39;;;;;;;8.15;2.70;;;3.70;99.90;;;;;;5096996;28;20032;-68
2023/03/03 02:56:08;;;;;;;5.85;2.08;;;3.70;99.90;;;;;;5109020;28;20032;-69
2023/03/03 02:58:34;;;;;;;7.03;1.95;;;3.70;99.90;;;;;;5105660;28;20028;-69
2023/03/03 03:01:00;;;;;;;5.55;2.00;;;3.70;99.90;;;;;;5094567;28;20028;-69
2023/03/03 03:03:26;;;;;;;14.55;2.50;;;3.70;99.90;;;;;;5078334;28;20150;-72
2023/03/03 03:05:52;;;;;;;5.90;2.20;;;3.70;99.90;;;;;;5091908;28;20040;-69
2023/03/03 03:08:18;;;;;;;6.07;1.90;;;3.70;99.90;;;;;;5095728;28;20032;-70
2023/03/03 03:10:44;;;;;;;4.57;1.95;;;3.60;99.90;;;;;;5100288;28;20080;-69
2023/03/03 03:13:09;;;;;;;4.03;1.83;;;3.60;99.90;;;;;;5090317;28;20016;-69
2023/03/03 03:15:35;;;;;;;5.60;2.00;;;3.60;99.90;;;;;;5099201;28;20487;-72
2023/03/03 03:18:01;;;;;;;11.18;2.85;;;3.60;99.90;;;;;;5101460;28;20032;-70
2023/03/03 03:20:27;;;;;;;6.45;2.08;;;3.60;99.90;;;;;;5091622;28;20387;-69
2023/03/03 03:22:52;;;;;;;3.67;1.95;;;3.60;99.90;;;;;;5097398;28;20028;-69
2023/03/03 03:25:18;;;;;;;9.88;2.63;;;3.60;99.90;;;;;;5099083;28;20040;-70
2023/03/03 03:27:43;;;;;;;8.00;1.77;;;3.50;99.90;;;;;;5099888;28;20404;-70
2023/03/03 03:30:10;;;;;;;5.60;1.90;;;3.50;99.90;;;;;;5102426;28;20086;-70
2023/03/03 03:32:35;;;;;;;8.30;2.35;;;3.50;99.90;;;;;;5090559;28;20096;-73
2023/03/03 03:35:01;;;;;;;8.82;2.08;;;3.50;99.90;;;;;;5094070;28;20041;-69
2023/03/03 03:37:26;;;;;;;5.88;1.73;;;3.50;99.90;;;;;;5103301;28;20028;-69
2023/03/03 03:39:52;;;;;;;6.15;2.28;;;3.50;99.90;;;;;;5093430;28;20020;-70
2023/03/03 03:42:18;;;;;;;4.75;1.67;;;3.50;99.90;;;;;;5093429;28;20097;-70
2023/03/03 03:44:44;;;;;;;4.05;1.73;;;3.50;99.90;;;;;;5092429;28;20475;-68
2023/03/03 03:47:10;;;;;;;4.63;1.70;;;3.40;99.90;;;;;;5094116;28;20504;-69
2023/03/03 03:49:35;;;;;;;5.60;2.17;;;3.40;99.90;;;;;;5080797;28;20055;-68
2023/03/03 03:52:01;;;;;;;3.92;1.70;;;3.40;99.90;;;;;;5106964;28;20490;-71
2023/03/03 03:54:27;;;;;;;9.77;2.10;;;3.40;99.90;;;;;;5101607;28;20126;-72
2023/03/03 03:56:53;;;;;;;5.78;2.10;;;3.30;99.90;;;;;;5090331;28;20056;-69
2023/03/03 03:59:19;;;;;;;5.97;1.90;;;3.30;99.90;;;;;;5100802;28;20098;-72
2023/03/03 04:01:46;;;;;;;6.50;1.95;;;3.30;99.90;;;;;;5107626;28;20115;-70
2023/03/03 04:04:13;;;;;;;12.02;3.15;;;3.30;99.90;;;;;;5093393;28;20024;-69
2023/03/03 04:06:38;;;;;;;8.73;2.30;;;3.20;99.90;;;;;;5092754;28;20077;-68
2023/03/03 04:09:04;;;;;;;140.73;15.40;;;3.20;99.90;;;;;;5091567;28;20032;-68
2023/03/03 04:11:30;;;;;;;79.47;8.48;;;3.20;99.90;;;;;;5092194;28;20036;-72
2023/03/03 04:13:56;;;;;;;169.57;18.40;;;3.10;99.90;;;;;;5093490;28;20063;-70
2023/03/03 04:16:22;;;;;;;48.63;6.68;;;3.10;99.90;;;;;;5090915;28;20032;-69
2023/03/03 04:18:47;;;;;;;35.33;4.43;;;3.10;99.90;;;;;;5092241;28;20085;-71
2023/03/03 04:21:14;;;;;;;26.13;4.13;;;3.00;99.90;;;;;;5092829;28;20115;-72
2023/03/03 04:23:40;;;;;;;9.88;2.60;;;3.00;99.90;;;;;;5092687;28;20036;-69
2023/03/03 04:26:06;;;;;;;9.50;2.35;;;3.00;99.90;;;;;;5092433;28;20039;-71
2023/03/03 04:28:31;;;;;;;10.25;2.55;;;3.00;99.90;;;;;;5092277;28;20055;-69
2023/03/03 04:30:57;;;;;;;10.32;2.60;;;3.00;99.90;;;;;;5090649;28;20392;-72
2023/03/03 04:33:22;;;;;;;7.97;2.80;;;3.00;99.90;;;;;;5091283;28;20047;-69
2023/03/03 04:35:48;;;;;;;10.55;3.30;;;3.00;99.90;;;;;;5093102;28;20348;-68
2023/03/03 04:38:14;;;;;;;10.35;3.20;;;2.90;99.90;;;;;;5092060;28;20084;-70
2023/03/03 04:40:41;;;;;;;11.82;3.05;;;2.90;99.90;;;;;;5091764;28;20103;-71
2023/03/03 04:43:06;;;;;;;89.38;9.40;;;2.90;99.90;;;;;;5092542;28;20027;-69
2023/03/03 04:45:32;;;;;;;51.83;7.38;;;2.90;99.90;;;;;;5091472;28;20048;-71
2023/03/03 04:47:57;;;;;;;44.53;7.82;;;2.90;99.90;;;;;;5091564;28;20054;-69
2023/03/03 04:50:23;;;;;;;7.28;3.03;;;2.90;99.90;;;;;;5093297;28;20024;-70
2023/03/03 04:52:49;;;;;;;10.13;3.17;;;2.90;99.90;;;;;;5092743;28;20032;-72
2023/03/03 04:55:15;;;;;;;21.55;4.57;;;2.80;99.90;;;;;;5092268;28;20024;-72
2023/03/03 04:57:41;;;;;;;31.00;6.53;;;2.80;99.90;;;;;;5092624;28;20077;-69
2023/03/03 05:00:09;;;;;;;13.45;5.82;;;2.80;99.90;;;;;;5092724;28;20024;-73
2023/03/03 05:02:34;;;;;;;130.50;16.02;;;2.80;99.90;;;;;;5092707;28;20032;-73
2023/03/03 05:05:00;;;;;;;21.13;5.25;;;2.80;99.90;;;;;;5092912;28;20097;-70
2023/03/03 05:07:25;;;;;;;9.60;3.90;;;2.80;99.90;;;;;;5092209;28;20111;-71
2023/03/03 05:09:51;;;;;;;14.88;4.32;;;2.80;99.90;;;;;;5091644;28;20537;-68
2023/03/03 05:12:17;;;;;;;15.75;4.90;;;2.90;99.90;;;;;;5092862;28;20035;-69
2023/03/03 05:14:42;;;;;;;10.63;3.75;;;2.90;99.90;;;;;;5092782;28;20027;-72
2023/03/03 05:17:08;;;;;;;10.52;3.67;;;3.00;99.90;;;;;;5091032;28;20036;-69
2023/03/03 05:19:34;;;;;;;8.93;3.30;;;3.10;99.90;;;;;;5091477;28;20082;-69
2023/03/03 05:22:00;;;;;;;10.43;3.55;;;3.10;99.90;;;;;;5091544;28;20372;-72
2023/03/03 05:24:26;;;;;;;10.88;3.70;;;3.10;99.90;;;;;;5092360;28;20051;-69
2023/03/03 05:26:52;;;;;;;9.35;3.58;;;3.20;99.90;;;;;;5091724;28;20028;-72
2023/03/03 05:29:18;;;;;;;12.25;4.50;;;3.20;99.90;;;;;;5091893;28;20408;-73
2023/03/03 05:31:43;;;;;;;10.35;3.72;;;3.20;99.90;;;;;;5091133;28;20125;-73
2023/03/03 05:34:09;;;;;;;10.82;3.88;;;3.10;99.90;;;;;;5091538;28;20043;-70
2023/03/03 05:36:35;;;;;;;11.70;4.20;;;3.10;99.90;;;;;;5091944;28;20091;-74
2023/03/03 05:39:00;;;;;;;16.90;7.03;;;3.10;99.90;;;;;;5091568;28;20032;-73
2023/03/03 05:41:26;;;;;;;11.82;5.13;;;3.10;99.90;;;;;;5091478;28;20032;-73
2023/03/03 05:43:52;;;;;;;12.20;5.20;;;3.10;99.90;;;;;;5092272;28;20153;-70
2023/03/03 05:46:17;;;;;;;13.20;5.28;;;3.20;99.90;;;;;;5092102;28;20035;-72
2023/03/03 05:48:44;;;;;;;13.65;5.70;;;3.10;99.90;;;;;;5091446;28;20047;-72
2023/03/03 05:51:09;;;;;;;11.80;5.05;;;3.10;99.90;;;;;;5092361;28;20020;-71
2023/03/03 05:53:35;;;;;;;13.52;4.78;;;3.10;99.90;;;;;;5091463;28;20043;-73
2023/03/03 05:56:01;;;;;;;12.90;5.15;;;3.10;99.90;;;;;;5091514;28;20040;-72
2023/03/03 05:58:27;;;;;;;15.52;5.93;;;3.00;99.90;;;;;;5091889;28;20084;-71
2023/03/03 06:00:53;;;;;;;14.20;5.15;;;3.00;99.90;;;;;;5091154;28;20049;-71
2023/03/03 06:03:18;;;;;;;12.93;5.22;;;2.90;99.90;;;;;;5092223;28;20055;-69
2023/03/03 06:05:44;;;;;;;11.60;5.00;;;2.90;99.90;;;;;;5092302;28;20047;-74
2023/03/03 06:08:09;;;;;;;14.82;5.45;;;2.80;99.90;;;;;;5090800;28;20036;-71
2023/03/03 06:10:35;;;;;;;13.43;4.82;;;2.80;99.90;;;;;;5090289;28;20030;-71
2023/03/03 06:13:01;;;;;;;12.20;5.03;;;2.80;99.90;;;;;;5090250;28;20161;-72
2023/03/03 06:15:26;;;;;;;10.65;5.00;;;2.80;99.90;;;;;;5091646;28;20091;-70
2023/03/03 06:17:52;;;;;;;16.50;8.57;;;2.70;99.90;;;;;;5091331;28;20160;-73
2023/03/03 06:20:17;;;;;;;12.63;5.60;;;2.70;99.90;;;;;;5092061;28;20031;-70
2023/03/03 06:22:43;;;;;;;10.65;5.65;;;2.70;99.90;;;;;;5090799;28;20081;-72
2023/03/03 06:25:09;;;;;;;15.23;6.03;;;2.70;99.90;;;;;;5091093;28;20048;-69
2023/03/03 06:27:35;;;;;;;11.10;5.78;;;2.70;99.90;;;;;;5086514;28;20027;-73
2023/03/03 06:30:00;;;;;;;13.27;5.88;;;2.60;99.90;;;;;;5091764;28;20048;-70
2023/03/03 06:32:26;;;;;;;13.25;6.53;;;2.60;99.90;;;;;;5095443;28;20095;-72
2023/03/03 06:34:51;;;;;;;11.07;5.88;;;2.60;99.90;;;;;;5086145;28;20020;-70
2023/03/03 06:37:17;;;;;;;15.05;5.90;;;2.60;99.90;;;;;;5093923;28;20035;-71
2023/03/03 06:39:43;;;;;;;13.55;5.63;;;2.60;99.90;;;;;;5094185;28;20047;-72
2023/03/03 06:42:08;;;;;;;14.40;7.13;;;2.60;99.90;;;;;;5095706;28;20024;-71
2023/03/03 06:44:34;;;;;;;14.18;5.65;;;2.60;99.90;;;;;;5095678;28;20130;-73
2023/03/03 06:47:00;;;;;;;16.23;7.43;;;2.70;99.90;;;;;;5095281;28;20093;-70
2023/03/03 06:49:26;;;;;;;13.52;5.82;;;2.60;99.90;;;;;;5091090;28;20028;-74
2023/03/03 06:51:52;;;;;;;15.00;6.43;;;2.60;99.90;;;;;;5094533;28;20030;-75
2023/03/03 06:54:21;;;;;;;17.17;5.68;;;2.60;99.90;;;;;;5094872;28;20074;-74
2023/03/03 06:56:50;;;;;;;14.27;5.95;;;2.60;99.90;;;;;;5094756;28;20027;-71
2023/03/03 06:59:18;;;;;;;15.43;6.07;;;2.70;99.90;;;;;;5094194;28;20028;-71
2023/03/03 07:01:46;;;;;;;13.63;6.18;;;2.70;99.90;;;;;;5094065;28;20024;-72
2023/03/03 07:04:25;;;;;;;17.52;6.50;;;2.70;99.90;;;;;;5090692;28;20103;-71
2023/03/03 07:06:50;;;;;;;17.63;7.20;;;2.70;99.90;;;;;;5093314;28;20505;-75
2023/03/03 07:09:26;;;;;;;16.65;6.80;;;2.80;99.90;;;;;;5096550;28;20047;-71
2023/03/03 07:11:55;;;;;;;16.15;7.47;;;2.80;99.90;;;;;;5093456;28;20126;-72
2023/03/03 07:14:21;;;;;;;13.05;6.30;;;2.80;99.90;;;;;;5096231;28;20024;-72
2023/03/03 07:16:54;;;;;;;11.77;5.70;;;2.90;99.90;;;;;;5102989;28;20532;-72
2023/03/03 07:19:29;;;;;;;16.67;7.53;;;2.90;99.90;;;;;;5095177;28;20053;-72
2023/03/03 07:21:55;;;;;;;16.70;6.60;;;3.00;99.90;;;;;;5111977;28;20052;-71
2023/03/03 07:24:28;;;;;;;15.43;6.68;;;3.10;99.90;;;;;;5098176;28;20039;-72
2023/03/03 07:27:05;;;;;;;12.70;6.32;;;3.10;99.90;;;;;;5104971;28;20056;-75
2023/03/03 07:29:32;;;;;;;14.98;6.50;;;3.20;99.90;;;;;;5082000;28;20044;-75
2023/03/03 07:32:00;;;;;;;14.85;6.63;;;3.20;99.90;;;;;;5095287;28;20042;-70
2023/03/03 07:34:42;;;;;;;19.42;7.18;;;3.30;99.90;;;;;;5096731;28;20065;-70
2023/03/03 07:37:37;;;;;;;14.80;6.50;;;3.40;99.90;;;;;;5105919;28;20024;-72
2023/03/03 07:40:26;;;;;;;12.68;6.43;;;3.50;99.90;;;;;;5076720;28;20426;-70
2023/03/03 07:42:52;;;;;;;18.15;6.95;;;3.60;99.90;;;;;;5099611;28;20031;-72
2023/03/03 07:45:35;;;;;;;15.13;6.10;;;3.70;99.90;;;;;;5103672;28;20044;-72
2023/03/03 07:48:25;;;;;;;15.75;6.25;;;3.80;99.90;;;;;;5100083;28;20024;-70
2023/03/03 07:50:51;;;;;;;13.57;6.13;;;3.90;99.90;;;;;;5104972;28;20077;-70
2023/03/03 07:53:25;;;;;;;18.33;7.25;;;4.00;99.90;;;;;;5105039;28;20031;-72
2023/03/03 07:55:51;;;;;;;12.48;6.50;;;4.10;99.90;;;;;;5098096;28;20143;-72
2023/03/03 07:58:40;;;;;;;12.68;5.40;;;4.30;99.90;;;;;;5102379;28;20110;-69
2023/03/03 08:01:17;;;;;;;15.70;6.20;;;4.40;99.90;;;;;;5082946;28;20036;-68
2023/03/03 08:03:45;;;;;;;20.92;6.13;;;4.50;99.90;;;;;;5105300;28;20032;-73
2023/03/03 08:06:32;;;;;;;10.20;4.82;;;4.60;99.90;;;;;;5096602;28;20036;-68
2023/03/03 08:09:10;;;;;;;10.98;4.65;;;4.70;99.90;;;;;;5103584;28;20023;-71
2023/03/03 08:11:50;;;;;;;8.10;3.88;;;4.90;99.90;;;;;;5107102;28;20110;-69
2023/03/03 08:14:24;;;;;;;6.55;3.47;;;5.00;99.90;;;;;;5108724;28;20027;-70
2023/03/03 08:16:50;;;;;;;6.93;3.42;;;5.10;99.90;;;;;;5101426;28;20035;-69
2023/03/03 08:19:17;;;;;;;8.32;3.63;;;5.30;99.90;;;;;;5104827;28;20031;-69
2023/03/03 08:21:43;;;;;;;5.35;2.72;;;5.40;99.90;;;;;;5093510;28;20085;-67
2023/03/03 08:24:08;;;;;;;11.30;3.67;;;5.60;99.90;;;;;;5100896;28;20039;-70
2023/03/03 08:26:34;;;;;;;11.43;3.55;;;5.70;99.90;;;;;;5100939;28;20051;-68
2023/03/03 08:29:00;;;;;;;6.65;2.70;;;5.90;99.90;;;;;;5104483;28;20043;-70
2023/03/03 08:31:26;;;;;;;7.82;2.58;;;6.20;99.90;;;;;;5092583;28;20103;-70
2023/03/03 08:33:51;;;;;;;6.40;1.90;;;6.40;99.90;;;;;;5095778;28;20032;-69
2023/03/03 08:36:17;;;;;;;7.35;2.38;;;6.70;99.90;;;;;;5090838;28;20027;-69
2023/03/03 08:38:43;;;;;;;4.05;2.22;;;7.00;99.90;;;;;;5094879;28;20020;-68
2023/03/03 08:41:09;;;;;;;11.85;4.53;;;7.50;99.90;;;;;;5096571;28;20036;-69
2023/03/03 08:43:35;;;;;;;8.20;2.25;;;8.20;99.90;;;;;;5096095;28;20369;-68
2023/03/03 08:46:04;;;;;;;5.18;1.90;;;9.00;99.90;;;;;;5101553;28;20127;-69
2023/03/03 08:48:30;;;;;;;5.80;1.83;;;10.00;99.90;;;;;;5104127;28;20074;-68
2023/03/03 08:50:56;;;;;;;9.77;1.40;;;11.10;99.90;;;;;;5100205;28;20475;-69
2023/03/03 08:53:22;;;;;;;4.50;1.20;;;12.10;99.90;;;;;;5091814;28;20039;-70
2023/03/03 08:55:48;;;;;;;2.85;1.30;;;13.00;99.90;;;;;;5098505;28;20020;-70
2023/03/03 08:58:15;;;;;;;6.93;1.90;;;13.90;99.90;;;;;;5095334;28;20040;-68
2023/03/03 09:00:40;;;;;;;7.65;2.08;;;14.50;99.90;;;;;;5093601;28;20028;-68
2023/03/03 09:03:06;;;;;;;7.68;1.48;;;15.20;99.90;;;;;;5099472;28;20115;-69
2023/03/03 09:05:34;;;;;;;6.75;1.70;;;16.00;98.80;;;;;;5096349;28;20092;-70
2023/03/03 09:08:00;;;;;;;3.67;1.30;;;16.60;97.30;;;;;;5093236;28;20054;-67
2023/03/03 09:10:28;;;;;;;3.80;1.05;;;17.30;96.70;;;;;;5095498;28;20490;-66
2023/03/03 09:12:57;;;;;;;3.35;1.20;;;17.80;94.20;;;;;;5097137;28;20028;-68
2023/03/03 09:15:34;;;;;;;4.88;1.27;;;18.00;93.90;;;;;;5092802;28;20024;-67
2023/03/03 09:18:21;;;;;;;4.50;1.42;;;18.40;93.90;;;;;;5092725;28;20472;-67
2023/03/03 09:20:52;;;;;;;7.35;2.35;;;18.70;92.00;;;;;;5104873;28;20378;-68
2023/03/03 09:23:20;;;;;;;5.70;1.20;;;18.90;92.50;;;;;;5097269;28;20040;-69
2023/03/03 09:25:47;;;;;;;4.55;1.13;;;19.30;92.10;;;;;;5091206;28;20065;-67
2023/03/03 09:28:29;;;;;;;3.95;1.25;;;19.40;91.10;;;;;;5094413;28;20137;-68
2023/03/03 09:31:00;;;;;;;4.63;1.33;;;19.70;90.30;;;;;;5098211;28;20078;-69
2023/03/03 09:33:45;;;;;;;2.10;1.13;;;19.80;90.10;;;;;;5090941;28;20024;-70
2023/03/03 09:36:36;;;;;;;5.38;1.30;;;20.20;90.10;;;;;;5107136;28;20036;-70
2023/03/03 09:39:22;;;;;;;3.83;1.80;;;20.60;88.30;;;;;;5089706;28;20028;-68
2023/03/03 09:41:56;;;;;;;6.78;1.90;;;20.90;87.20;;;;;;5101755;28;20056;-68
2023/03/03 09:45:03;;;;;;;5.35;1.33;;;21.00;86.60;;;;;;5081374;28;20036;-68
2023/03/03 09:47:43;;;;;;;6.50;1.30;;;20.90;86.00;;;;;;5059124;28;20071;-68
2023/03/03 09:50:25;;;;;;;9.35;2.22;;;20.70;85.00;;;;;;5091879;28;20043;-68
2023/03/03 09:53:27;;;;;;;10.23;2.92;;;20.40;86.10;;;;;;5109078;28;20028;-67
2023/03/03 09:55:57;;;;;;;5.07;2.00;;;20.10;86.60;;;;;;5103741;28;20036;-68
2023/03/03 09:58:44;;;;;;;4.95;1.70;;;20.10;87.00;;;;;;5088889;28;20115;-68
2023/03/03 10:01:44;;;;;;;6.57;1.90;;;20.30;85.30;;;;;;5090867;28;20031;-67
2023/03/03 10:04:32;;;;;;;4.00;1.42;;;19.70;86.30;;;;;;5108423;28;20069;-67
2023/03/03 10:07:24;;;;;;;4.85;1.52;;;19.30;86.40;;;;;;5097996;28;20060;-69
2023/03/03 10:10:02;;;;;;;4.65;1.20;;;18.90;88.60;;;;;;5112017;28;20110;-69
2023/03/03 10:12:43;;;;;;;5.95;2.45;;;19.30;86.40;;;;;;5098501;28;20055;-68
2023/03/03 10:15:26;;;;;;;7.40;2.53;;;19.20;86.70;;;;;;5105708;28;20035;-68
2023/03/03 10:18:13;;;;;;;3.20;1.08;;;19.30;86.00;;;;;;5092893;28;20030;-69
2023/03/03 10:20:51;;;;;;;3.85;1.20;;;19.60;83.50;;;;;;5080226;28;20050;-68
2023/03/03 10:23:45;;;;;;;7.40;1.70;;;19.00;85.00;;;;;;5103287;28;20024;-68
2023/03/03 10:26:50;;;;;;;3.97;1.45;;;18.10;86.90;;;;;;5092120;28;20047;-69
2023/03/03 10:29:26;;;;;;;5.35;1.23;;;17.00;88.20;;;;;;5087875;28;20051;-68
2023/03/03 10:32:08;;;;;;;5.80;2.25;;;16.10;90.00;;;;;;5089697;28;20471;-68
2023/03/03 10:35:10;;;;;;;6.15;2.05;;;15.50;90.60;;;;;;5088442;28;20427;-69
2023/03/03 10:37:53;;;;;;;5.93;2.10;;;14.60;91.40;;;;;;5100866;28;20123;-69
2023/03/03 10:40:27;;;;;;;;;;;13.90;92.80;;;;;;5108388;28;20936;-69
2023/03/03 10:43:30;;;;;;;10.48;2.08;;;13.40;93.90;;;;;;5095170;28;19964;-68
2023/03/03 10:46:06;;;;;;;2.17;1.23;;;13.40;94.10;;;;;;5090345;28;20040;-69
2023/03/03 10:48:37;;;;;;;6.20;1.52;;;13.20;94.40;;;;;;5091081;28;20071;-68
2023/03/03 10:51:25;;;;;;;3.10;1.40;;;13.90;94.60;;;;;;5092142;28;20043;-72
2023/03/03 10:54:14;;;;;;;5.93;1.60;;;15.30;92.50;;;;;;5097835;28;20068;-68
2023/03/03 10:57:16;;;;;;;3.83;1.65;;;16.60;91.30;;;;;;5091383;28;20055;-70
2023/03/03 11:00:03;;;;;;;3.45;1.58;;;18.00;88.80;;;;;;5092151;28;20036;-71
2023/03/03 11:02:39;;;;;;;4.65;1.23;;;18.80;85.80;;;;;;5087093;28;20028;-69
2023/03/03 11:05:26;;;;;;;2.78;1.20;;;19.40;84.40;;;;;;5096725;28;20075;-69
2023/03/03 11:08:15;;;;;;;3.15;1.20;;;20.20;82.80;;;;;;5095783;28;20104;-70
2023/03/03 11:11:00;;;;;;;5.60;1.48;;;21.00;78.80;;;;;;5091997;28;20074;-71
2023/03/03 11:13:52;;;;;;;4.28;1.67;;;21.80;77.70;;;;;;5106963;28;20055;-71
2023/03/03 11:16:28;;;;;;;;;;;21.30;77.80;;;;;;5099070;28;20092;-71
2023/03/03 11:19:25;;;;;;;4.55;1.27;;;20.20;78.70;;;;;;5106163;28;19908;-68
2023/03/03 11:22:21;;;;;;;7.15;2.05;;;19.00;80.60;;;;;;5111579;28;20080;-70
2023/03/03 11:24:56;;;;;;;5.07;1.67;;;17.70;83.50;;;;;;5089061;28;20115;-69
2023/03/03 11:28:03;;;;;;;5.28;2.25;;;16.60;86.00;;;;;;5103367;28;20051;-68
2023/03/03 11:30:46;;;;;;;5.35;1.42;;;15.60;86.40;;;;;;5075705;28;20044;-70
2023/03/03 11:33:21;;;;;;;5.72;1.30;;;14.80;87.90;;;;;;5102538;28;20536;-68
2023/03/03 11:36:12;;;;;;;4.15;1.25;;;14.10;90.30;;;;;;5104975;28;20024;-70
2023/03/03 11:39:00;;;;;;;4.40;1.00;;;13.60;90.80;;;;;;5066921;28;20033;-71
2023/03/03 11:41:37;;;;;;;3.97;1.73;;;13.20;91.40;;;;;;5100491;28;20073;-68
2023/03/03 11:44:28;;;;;;;2.97;1.17;;;12.90;92.10;;;;;;5091655;28;20386;-69
2023/03/03 11:46:59;;;;;;;2.87;1.43;;;12.60;92.20;;;;;;5106725;28;20110;-70
2023/03/03 11:49:37;;;;;;;6.18;1.80;;;12.60;92.60;;;;;;5107002;28;20023;-69
2023/03/03 11:52:18;;;;;;;7.25;1.45;;;13.60;92.60;;;;;;5097881;28;20028;-71
2023/03/03 11:54:56;;;;;;;8.05;2.35;;;15.10;90.90;;;;;;5107340;28;20032;-72
2023/03/03 11:57:43;;;;;;;2.58;1.02;;;16.80;88.70;;;;;;5107011;28;20032;-70
2023/03/03 12:00:37;;;;;;;4.60;1.23;;;18.60;84.00;;;;;;5097485;28;20069;-69
2023/03/03 12:03:34;;;;;;;7.10;2.67;;;19.50;82.20;;;;;;5104939;28;20024;-70
2023/03/03 12:06:11;;;;;;;4.55;1.80;;;19.30;81.20;;;;;;5111206;28;20031;-71
2023/03/03 12:09:00;;;;;;;3.15;1.63;;;18.80;81.10;;;;;;5100094;28;20107;-71
2023/03/03 12:11:48;;;;;;;7.55;2.42;;;18.20;82.90;;;;;;5099269;28;20023;-69
2023/03/03 12:14:34;;;;;;;10.05;3.50;;;17.60;83.40;;;;;;5097669;28;20042;-69
2023/03/03 12:17:16;;;;;;;3.67;1.52;;;17.00;83.80;;;;;;5105434;28;20028;-68
2023/03/03 12:19:58;;;;;;;6.03;1.45;;;16.50;85.00;;;;;;5108433;28;20023;-69
2023/03/03 12:22:33;;;;;;;;;;;15.90;85.10;;;;;;5082265;28;20019;-70
2023/03/03 12:25:32;;;;;;;6.78;2.45;;;15.40;86.50;;;;;;5104560;28;19929;-72
2023/03/03 12:28:14;;;;;;;5.93;2.08;;;14.80;88.80;;;;;;5109903;28;20035;-68
2023/03/03 12:31:04;;;;;;;2.03;1.15;;;14.40;88.90;;;;;;5100381;28;20169;-70
2023/03/03 12:34:06;;;;;;;6.60;1.80;;;14.00;90.00;;;;;;5100014;28;20034;-70
2023/03/03 12:36:46;;;;;;;4.22;1.00;;;13.60;90.50;;;;;;5083531;28;20035;-69
2023/03/03 12:39:25;;;;;;;3.80;0.95;;;13.20;91.10;;;;;;5103248;28;20044;-69
2023/03/03 12:42:02;;;;;;;12.32;3.67;;;13.00;91.20;;;;;;5109072;28;20015;-68
2023/03/03 12:44:45;;;;;;;6.38;2.20;;;12.80;92.30;;;;;;5084729;28;20047;-71
2023/03/03 12:47:41;;;;;;;9.07;1.98;;;12.70;92.50;;;;;;5102844;28;20027;-72
2023/03/03 12:50:18;;;;;;;2.83;1.30;;;12.70;92.70;;;;;;5076437;28;20464;-69
2023/03/03 12:53:08;;;;;;;6.30;1.48;;;12.60;91.90;;;;;;5100344;28;20020;-69
2023/03/03 12:55:50;;;;;;;9.02;1.77;;;12.40;92.40;;;;;;5099655;28;20483;-71
2023/03/03 12:58:45;;;;;;;4.65;1.20;;;12.30;93.10;;;;;;5110052;28;20020;-72
2023/03/03 13:01:22;;;;;;;7.18;1.88;;;12.20;92.70;;;;;;5103790;28;20092;-68
2023/03/03 13:04:07;;;;;;;5.85;2.22;;;12.10;93.80;;;;;;5097457;28;20059;-70
2023/03/03 13:07:00;;;;;;;10.75;3.70;;;12.10;94.00;;;;;;5083608;28;20043;-72
2023/03/03 13:09:38;;;;;;;4.82;1.80;;;12.20;93.80;;;;;;5106567;28;20479;-69
2023/03/03 13:12:42;;;;;;;2.88;1.02;;;12.20;93.60;;;;;;5096611;28;20073;-71
2023/03/03 13:15:43;;;;;;;8.10;2.90;;;12.30;93.90;;;;;;5020135;28;20049;-70
2023/03/03 13:18:30;;;;;;;7.68;2.55;;;12.20;94.10;;;;;;5008218;28;20038;-72
2023/03/03 13:21:37;;;;;;;4.15;1.25;;;12.30;94.30;;;;;;5096016;28;20039;-69